Partridge, Minnesota
Current Conditions -  °F | °C
As of 6:33 AM on Monday 22 Dec 2014 (Local Time) from KMZH Reporting Station
Light Rain Light Rain  
Wind Chill: 29°   Ceiling: 500
Heat Index: 34°   Visibility: 4mi
Dew Point: 32°   Wind: 6mph
Humidity: 93%   Direction: 160°SSE
Pressure: 29.66"   Gusts: NA
Location:  46.2004°N, 92.675°W
Report Text: KMZH 221233Z AUTO 16005KT 4SM -RA OVC005 01/00 A2966 RMK AO2
Loading
Personal Weather Stations






























Interactive Weather Map New forecast layout! Learn more

10-Day Weather Forecast

Advertisements
Track Severe Weather on mobile